Rewey, Wisconsin
Current Conditions -  °F | °C
As of 10:15 PM on Sunday 21 Dec 2014 (Local Time) from KMRJ Reporting Station
Haze Haze  
Wind Chill: 26°   Ceiling: 900
Heat Index: 36°   Visibility: 5mi
Dew Point: 32°   Wind: 15mph
Humidity: 87%   Direction: 150°SSE
Pressure: 29.9"   Gusts: NA
Location:  42.84°N, 90.4°W
Report Text: KMRJ 220415Z AUTO 15013KT 5SM BR OVC009 02/00 A2990 RMK AO2
Loading
Personal Weather Stations






























Interactive Weather Map New forecast layout! Learn more

10-Day Weather Forecast

Advertisements
Track Severe Weather on mobile